Terminal Aerodrome Forecast
Issued by NWS Louisville, KY

Home | Current Version | Previous Version | Text Only | Print | Product List | Glossary On
Versions: 1 2 3 4 5 6 7 8 9 10 11 12 13 14 15 16
639
FTUS43 KLMK 191700
TAFBWG
TAF
KBWG 191720Z 1918/2018 34005KT P6SM SKC
     FM200100 00000KT P6SM FEW250
     FM201300 06005KT P6SM SCT250=

USA.gov is the U.S. government's official web portal to all federal, state and local government web resources and services.